createdAt,value
2019-05-23T00:02:26.267Z,22.85
2019-05-23T00:05:37.537Z,18.90
2019-05-23T00:08:24.582Z,24.67
2019-05-23T00:11:01.409Z,19.98
2019-05-23T00:13:49.674Z,21.42
2019-05-23T00:16:21.066Z,20.23
2019-05-23T00:18:49.607Z,22.80
2019-05-23T00:21:18.129Z,16.80
2019-05-23T00:23:46.622Z,15.83
2019-05-23T00:26:15.361Z,18.35
2019-05-23T00:28:45.906Z,18.82
2019-05-23T00:31:23.713Z,20.48
2019-05-23T00:33:52.700Z,25.15
2019-05-23T00:36:21.402Z,21.52
2019-05-23T00:38:50.169Z,25.68
2019-05-23T00:41:18.794Z,22.98
2019-05-23T00:43:47.273Z,24.30
2019-05-23T00:46:15.735Z,25.50
2019-05-23T00:48:44.188Z,26.57
2019-05-23T00:51:13.680Z,24.65
2019-05-23T00:53:42.463Z,23.92
2019-05-23T00:56:11.237Z,22.13
2019-05-23T00:58:39.734Z,23.32
2019-05-23T01:01:09.479Z,24.80
2019-05-23T01:03:37.922Z,25.32
2019-05-23T01:06:06.414Z,22.05
2019-05-23T01:08:34.899Z,26.02
2019-05-23T01:11:04.961Z,25.92
2019-05-23T01:13:34.418Z,21.35
2019-05-23T01:16:03.720Z,23.18
2019-05-23T01:18:32.404Z,26.02
2019-05-23T01:21:26.783Z,21.87
2019-05-23T01:24:02.143Z,22.65
2019-05-23T01:26:30.639Z,25.43
2019-05-23T01:28:59.177Z,23.98
2019-05-23T01:31:31.975Z,24.12
2019-05-23T01:34:00.763Z,21.73
2019-05-23T01:36:29.238Z,23.95
2019-05-23T01:38:57.731Z,21.23
2019-05-23T01:41:26.228Z,23.22
2019-05-23T01:43:55.738Z,22.42
2019-05-23T01:46:24.208Z,23.60
2019-05-23T01:48:52.753Z,19.07
2019-05-23T01:51:21.466Z,20.02
2019-05-23T01:53:50.926Z,18.27
2019-05-23T01:56:19.667Z,17.80
2019-05-23T01:58:48.224Z,17.55
2019-05-23T02:01:16.681Z,17.12
2019-05-23T02:03:45.302Z,15.13
2019-05-23T02:06:13.758Z,20.08
2019-05-23T02:08:42.743Z,18.82
2019-05-23T02:11:11.302Z,33.70
2019-05-23T02:13:39.798Z,15.25
2019-05-23T02:16:08.279Z,23.65
2019-05-23T02:18:36.767Z,48.80
2019-05-23T02:21:07.189Z,91.10
2019-05-23T02:23:37.515Z,37.17
2019-05-23T02:26:07.050Z,24.52
2019-05-23T02:28:35.610Z,33.65
2019-05-23T02:31:08.303Z,26.02
2019-05-23T02:33:36.979Z,47.50
2019-05-23T02:36:05.449Z,21.12
2019-05-23T02:38:59.102Z,48.40
2019-05-23T02:41:35.586Z,42.80
2019-05-23T02:44:10.669Z,44.45
2019-05-23T02:46:48.198Z,19.27
2019-05-23T02:49:18.117Z,20.37
2019-05-23T02:51:46.867Z,126.80
2019-05-23T02:54:15.371Z,64.05
2019-05-23T02:56:43.862Z,48.75
2019-05-23T02:59:18.917Z,53.75
2019-05-23T03:02:00.961Z,72.12
2019-05-23T03:04:30.874Z,51.92
2019-05-23T03:06:59.786Z,68.90
2019-05-23T03:09:29.116Z,18.12
2019-05-23T03:11:57.566Z,22.95
2019-05-23T03:14:27.188Z,32.15
2019-05-23T03:16:55.922Z,58.28
2019-05-23T03:19:30.757Z,30.68
2019-05-23T03:22:16.254Z,76.15
2019-05-23T03:24:44.695Z,91.37
2019-05-23T03:27:14.233Z,102.80
2019-05-23T03:29:42.697Z,129.70
2019-05-23T03:32:37.330Z,61.68
2019-05-23T03:35:10.523Z,53.50
2019-05-23T03:37:40.082Z,55.08
2019-05-23T03:40:08.654Z,52.10
2019-05-23T03:42:37.734Z,88.35
2019-05-23T03:45:06.223Z,85.57
2019-05-23T03:47:36.017Z,46.08
2019-05-23T03:50:04.576Z,91.10
2019-05-23T03:52:33.531Z,73.37
2019-05-23T03:55:02.218Z,67.82
2019-05-23T03:57:30.713Z,53.42
2019-05-23T03:59:59.496Z,31.12
2019-05-23T04:02:28.016Z,16.80
2019-05-23T04:04:56.465Z,39.38
2019-05-23T04:07:25.270Z,66.72
2019-05-23T04:09:53.735Z,86.87
2019-05-23T04:12:22.213Z,82.33
2019-05-23T04:14:50.691Z,60.60
2019-05-23T04:17:19.177Z,34.78
2019-05-23T04:19:47.866Z,63.07
2019-05-23T04:22:16.386Z,53.83
2019-05-23T04:24:44.836Z,48.87
2019-05-23T04:27:13.340Z,47.85
2019-05-23T04:29:41.826Z,38.02
2019-05-23T04:32:10.848Z,41.65
2019-05-23T04:34:41.015Z,87.30
2019-05-23T04:37:10.267Z,55.35
2019-05-23T04:39:39.724Z,40.08
2019-05-23T04:42:08.225Z,31.77
2019-05-23T04:44:36.687Z,46.88
2019-05-23T04:47:05.688Z,61.13
2019-05-23T04:49:34.085Z,105.27
2019-05-23T04:52:02.758Z,116.82
2019-05-23T04:54:31.237Z,136.68
2019-05-23T04:56:59.694Z,137.28
2019-05-23T04:59:28.145Z,85.87
2019-05-23T05:01:56.637Z,58.02
2019-05-23T05:04:25.197Z,86.90
2019-05-23T05:06:54.098Z,71.72
2019-05-23T05:09:24.692Z,178.65
2019-05-23T05:11:53.204Z,74.53
2019-05-23T05:14:21.708Z,58.75
2019-05-23T05:16:51.299Z,74.92
2019-05-23T05:19:19.837Z,53.52
2019-05-23T05:21:49.324Z,54.85
2019-05-23T05:24:17.822Z,64.77
2019-05-23T05:26:46.293Z,33.90
2019-05-23T05:29:14.767Z,56.75
2019-05-23T05:31:43.260Z,48.45
2019-05-23T05:34:11.730Z,51.80
2019-05-23T05:36:40.940Z,38.28
2019-05-23T05:39:09.717Z,36.03
2019-05-23T05:41:40.173Z,29.77
2019-05-23T05:44:11.658Z,27.37
2019-05-23T05:46:37.102Z,23.95
2019-05-23T05:49:05.732Z,31.27
2019-05-23T05:51:34.204Z,23.47
2019-05-23T05:54:03.171Z,27.42
2019-05-23T05:56:31.467Z,27.07
2019-05-23T05:58:59.969Z,23.75
2019-05-23T06:01:33.871Z,25.95
2019-05-23T06:03:56.924Z,28.10
2019-05-23T06:06:28.884Z,22.82
2019-05-23T06:08:59.363Z,23.15
2019-05-23T06:11:27.973Z,22.53
2019-05-23T06:13:56.642Z,19.70
2019-05-23T06:16:25.179Z,24.70
2019-05-23T06:18:59.785Z,24.23
2019-05-23T06:24:16.952Z,23.32
2019-05-23T06:26:46.711Z,20.97
2019-05-23T06:29:15.326Z,21.37
2019-05-23T06:31:43.714Z,19.67
2019-05-23T06:34:13.205Z,22.75
2019-05-23T06:36:43.723Z,22.00
2019-05-23T06:39:13.534Z,22.27
2019-05-23T06:41:42.745Z,21.07
2019-05-23T06:44:11.331Z,22.17
2019-05-23T06:46:40.079Z,23.07
2019-05-23T06:49:08.869Z,25.85
2019-05-23T06:51:37.338Z,23.52
2019-05-23T06:54:05.974Z,24.52
2019-05-23T06:56:34.410Z,27.85
2019-05-23T06:59:02.955Z,23.00
2019-05-23T07:01:33.461Z,28.95
2019-05-23T07:04:03.682Z,25.60
2019-05-23T07:06:32.432Z,30.43
2019-05-23T07:09:01.044Z,21.80
2019-05-23T07:11:29.750Z,24.52
2019-05-23T07:14:00.407Z,26.37
2019-05-23T07:16:29.313Z,21.57
2019-05-23T07:19:03.479Z,25.12
2019-05-23T07:21:31.950Z,20.45
2019-05-23T07:24:00.945Z,30.23
2019-05-23T07:26:29.420Z,25.88
2019-05-23T07:28:57.891Z,24.05
2019-05-23T07:31:26.652Z,21.35
2019-05-23T07:34:01.974Z,23.67
2019-05-23T07:36:23.652Z,23.27
2019-05-23T07:38:53.144Z,21.17
2019-05-23T07:41:21.610Z,21.27
2019-05-23T07:43:50.114Z,20.92
2019-05-23T07:46:19.629Z,18.52
2019-05-23T07:48:48.094Z,23.30
2019-05-23T07:51:16.629Z,18.95
2019-05-23T07:53:54.469Z,23.55
2019-05-23T07:56:24.120Z,23.12
2019-05-23T07:58:52.896Z,20.72
2019-05-23T08:01:23.611Z,21.07
2019-05-23T08:03:52.109Z,20.15
2019-05-23T08:06:20.803Z,17.50
2019-05-23T08:08:49.239Z,20.60
2019-05-23T08:11:17.690Z,16.50
2019-05-23T08:13:46.659Z,16.50
2019-05-23T08:16:15.894Z,16.67
2019-05-23T08:18:44.348Z,15.35
2019-05-23T08:21:16.700Z,14.40
2019-05-23T08:23:46.979Z,13.32
2019-05-23T08:26:17.780Z,14.63
2019-05-23T08:29:21.801Z,10.08
2019-05-23T08:31:14.969Z,9.83
2019-05-23T08:33:43.442Z,15.60
2019-05-23T08:36:11.956Z,17.40
2019-05-23T08:38:40.487Z,11.85
2019-05-23T08:41:08.897Z,11.73
2019-05-23T08:43:38.675Z,10.90
2019-05-23T08:46:09.166Z,12.03
2019-05-23T08:48:38.915Z,12.53
2019-05-23T08:51:07.426Z,13.50
2019-05-23T08:53:37.001Z,11.33
2019-05-23T08:56:18.393Z,11.20
2019-05-23T09:01:05.243Z,9.75
2019-05-23T09:03:33.668Z,9.73
2019-05-23T09:06:02.171Z,9.18
2019-05-23T09:08:30.637Z,9.23
2019-05-23T09:11:00.163Z,10.15
2019-05-23T09:13:29.737Z,9.43
2019-05-23T09:16:00.212Z,12.63
2019-05-23T09:18:30.711Z,11.67
2019-05-23T09:20:59.156Z,12.13
2019-05-23T09:23:27.756Z,10.68
2019-05-23T09:25:56.458Z,10.23
2019-05-23T09:28:25.276Z,11.33
2019-05-23T09:30:54.776Z,11.65
2019-05-23T09:33:23.238Z,9.80
2019-05-23T09:35:51.818Z,10.58
2019-05-23T09:38:20.263Z,9.10
2019-05-23T09:40:48.688Z,8.83
2019-05-23T09:43:19.610Z,8.43
2019-05-23T09:45:48.108Z,8.88
2019-05-23T09:48:18.341Z,8.03
2019-05-23T09:50:54.235Z,10.17
2019-05-23T09:53:22.727Z,9.40
2019-05-23T09:55:51.588Z,9.75
2019-05-23T09:58:20.274Z,8.43
2019-05-23T10:00:48.779Z,8.88
2019-05-23T10:03:17.662Z,10.43
2019-05-23T10:05:51.205Z,10.30
2019-05-23T10:11:25.623Z,9.98
2019-05-23T10:13:54.336Z,9.48
2019-05-23T10:16:22.768Z,7.53
2019-05-23T10:18:51.342Z,9.38
2019-05-23T10:21:20.469Z,9.43
2019-05-23T10:23:49.960Z,8.58
2019-05-23T10:26:24.507Z,10.32
2019-05-23T10:28:52.959Z,6.90
2019-05-23T10:31:21.503Z,6.70
2019-05-23T10:33:51.684Z,6.58
2019-05-23T10:36:22.752Z,10.63
2019-05-23T10:38:51.183Z,6.12
2019-05-23T10:41:20.395Z,7.87
2019-05-23T10:43:49.153Z,9.75
2019-05-23T10:46:17.667Z,8.43
2019-05-23T10:48:46.387Z,6.85
2019-05-23T10:51:20.643Z,9.07
2019-05-23T10:53:49.502Z,11.15
2019-05-23T10:56:23.744Z,8.78
2019-05-23T10:58:52.230Z,10.03
2019-05-23T11:01:21.106Z,5.87
2019-05-23T11:03:50.327Z,8.10
2019-05-23T11:06:19.800Z,8.40
2019-05-23T11:08:54.289Z,7.65
2019-05-23T11:11:38.109Z,7.10
2019-05-23T11:14:08.652Z,10.90
2019-05-23T11:16:35.245Z,7.27
2019-05-23T11:19:04.074Z,8.93
2019-05-23T11:21:32.520Z,6.92
2019-05-23T11:24:01.012Z,9.58
2019-05-23T11:26:29.477Z,7.35
2019-05-23T11:29:01.059Z,10.30
2019-05-23T11:31:29.595Z,6.70
2019-05-23T11:33:59.026Z,6.53
2019-05-23T11:36:35.829Z,7.62
2019-05-23T11:38:57.003Z,6.20
2019-05-23T11:41:25.490Z,7.33
2019-05-23T11:43:55.916Z,7.15
2019-05-23T11:46:32.977Z,5.83
2019-05-23T11:49:05.957Z,6.28
2019-05-23T11:51:34.504Z,8.48
2019-05-23T11:54:08.834Z,6.03
2019-05-23T11:56:31.443Z,5.17
2019-05-23T11:59:01.955Z,5.22
2019-05-23T12:01:45.473Z,8.20
2019-05-23T12:04:18.296Z,8.05
2019-05-23T12:06:55.240Z,7.25
2019-05-23T12:09:19.248Z,6.90
2019-05-23T12:11:47.726Z,5.42
2019-05-23T12:14:18.266Z,5.97
2019-05-23T12:16:46.725Z,5.47
2019-05-23T12:19:15.212Z,8.00
2019-05-23T12:21:44.745Z,6.83
2019-05-23T12:24:18.968Z,5.65
2019-05-23T12:26:49.392Z,6.55
2019-05-23T12:29:19.887Z,5.10
2019-05-23T12:31:56.982Z,5.23
2019-05-23T12:34:25.511Z,6.60
2019-05-23T12:37:14.273Z,8.28
2019-05-23T12:39:23.576Z,6.85
2019-05-23T12:41:52.057Z,4.87
2019-05-23T12:44:21.551Z,4.65
2019-05-23T12:46:50.014Z,6.67
2019-05-23T12:49:22.218Z,6.20
2019-05-23T12:51:50.889Z,6.00
2019-05-23T12:54:20.390Z,6.87
2019-05-23T12:56:49.818Z,6.22
2019-05-23T12:59:18.380Z,6.15
2019-05-23T13:01:48.853Z,8.35
2019-05-23T13:04:17.350Z,6.40
2019-05-23T13:06:45.867Z,8.13
2019-05-23T13:09:14.561Z,6.45
2019-05-23T13:11:43.336Z,5.28
2019-05-23T13:14:11.856Z,8.05
2019-05-23T13:16:41.353Z,7.20
2019-05-23T13:19:09.839Z,7.10
2019-05-23T13:21:38.577Z,7.15
2019-05-23T13:24:07.032Z,6.25
2019-05-23T13:26:35.579Z,5.97
2019-05-23T13:29:03.991Z,6.92
2019-05-23T13:31:32.744Z,7.67
2019-05-23T13:34:02.218Z,6.85
2019-05-23T13:36:31.698Z,8.03
2019-05-23T13:39:00.201Z,5.45
2019-05-23T13:41:28.618Z,6.78
2019-05-23T13:43:57.120Z,9.03
2019-05-23T13:46:25.859Z,6.70
2019-05-23T13:48:54.280Z,6.65
2019-05-23T13:51:22.971Z,6.60
2019-05-23T13:53:55.047Z,8.43
2019-05-23T13:56:24.402Z,6.85
2019-05-23T13:58:53.740Z,6.60
2019-05-23T14:01:24.682Z,6.10
2019-05-23T14:03:55.396Z,7.47
2019-05-23T14:06:25.707Z,7.62
2019-05-23T14:08:54.818Z,5.72
2019-05-23T14:11:23.323Z,5.67
2019-05-23T14:14:00.193Z,7.08
2019-05-23T14:16:23.749Z,6.45
2019-05-23T14:18:54.275Z,6.50
2019-05-23T14:21:23.965Z,7.75
2019-05-23T14:23:52.735Z,7.45
2019-05-23T14:26:21.200Z,9.50
2019-05-23T14:28:49.666Z,7.78
2019-05-23T14:31:22.271Z,6.55
2019-05-23T14:33:59.665Z,5.72
2019-05-23T14:36:51.763Z,7.53
2019-05-23T14:39:24.620Z,7.37
2019-05-23T14:42:00.091Z,6.22
2019-05-23T14:44:28.888Z,6.00
2019-05-23T14:47:20.449Z,6.72
2019-05-23T14:49:54.051Z,5.47
2019-05-23T14:52:27.564Z,5.05
2019-05-23T14:54:59.700Z,7.92
2019-05-23T14:57:28.194Z,4.70
2019-05-23T14:59:56.936Z,5.17
2019-05-23T15:02:25.460Z,5.50
2019-05-23T15:04:54.023Z,6.83
2019-05-23T15:07:22.940Z,7.85
2019-05-23T15:09:51.638Z,5.12
2019-05-23T15:12:20.108Z,5.87
2019-05-23T15:14:48.577Z,5.45
2019-05-23T15:17:17.130Z,5.15
2019-05-23T15:20:04.900Z,6.28
2019-05-23T15:22:33.403Z,7.75
2019-05-23T15:25:01.866Z,7.28
2019-05-23T15:27:33.067Z,5.90
2019-05-23T15:30:01.411Z,4.70
2019-05-23T15:32:29.960Z,8.30
2019-05-23T15:34:58.482Z,7.08
2019-05-23T15:37:27.023Z,5.62
2019-05-23T15:39:56.009Z,6.22
2019-05-23T15:42:24.423Z,5.67
2019-05-23T15:44:54.007Z,8.63
2019-05-23T15:47:22.647Z,7.75
2019-05-23T15:50:11.693Z,5.53
2019-05-23T15:53:20.931Z,7.12
2019-05-23T15:56:27.308Z,6.72
2019-05-23T15:59:12.243Z,6.37
2019-05-23T16:02:03.626Z,6.67
2019-05-23T16:04:33.568Z,7.97
2019-05-23T16:07:01.921Z,7.12
2019-05-23T16:09:32.126Z,8.10
2019-05-23T16:11:59.253Z,6.45
2019-05-23T16:14:27.996Z,9.68
2019-05-23T16:16:57.209Z,7.10
2019-05-23T16:19:25.674Z,11.68
2019-05-23T16:21:54.390Z,7.55
2019-05-23T16:24:22.905Z,7.35
2019-05-23T16:26:55.179Z,7.70
2019-05-23T16:29:27.469Z,6.28
2019-05-23T16:31:56.435Z,6.17
2019-05-23T16:34:29.264Z,5.50
2019-05-23T16:36:59.791Z,4.10
2019-05-23T16:39:46.064Z,5.33
2019-05-23T16:41:56.746Z,4.47
2019-05-23T16:44:28.259Z,5.08
2019-05-23T16:46:57.037Z,4.53
2019-05-23T16:49:29.098Z,5.87
2019-05-23T16:51:58.563Z,7.08
2019-05-23T16:54:30.081Z,3.70
2019-05-23T16:59:51.245Z,8.95
2019-05-23T17:02:33.067Z,4.85
2019-05-23T17:05:10.523Z,6.78
2019-05-23T17:07:58.044Z,6.53
2019-05-23T17:10:51.649Z,7.62
2019-05-23T17:13:45.648Z,22.95
2019-05-23T17:16:25.856Z,8.78
2019-05-23T17:19:04.845Z,7.60
2019-05-23T17:21:44.271Z,11.03
2019-05-23T17:24:25.773Z,8.75
2019-05-23T17:27:07.891Z,5.60
2019-05-23T17:29:46.994Z,7.00
2019-05-23T17:32:17.734Z,8.05
2019-05-23T17:34:46.229Z,8.33
2019-05-23T17:37:14.695Z,5.15
2019-05-23T17:39:43.638Z,6.95
2019-05-23T17:42:12.312Z,4.78
2019-05-23T17:44:40.889Z,5.70
2019-05-23T17:47:09.226Z,6.03
2019-05-23T17:49:37.716Z,4.83
2019-05-23T17:52:06.434Z,9.63
2019-05-23T17:54:34.864Z,5.15
2019-05-23T17:57:03.356Z,5.00
2019-05-23T17:59:31.833Z,5.00
2019-05-23T18:02:00.286Z,6.17
2019-05-23T18:04:28.765Z,3.98
2019-05-23T18:06:57.648Z,4.45
2019-05-23T18:09:26.218Z,3.50
2019-05-23T18:11:55.593Z,4.55
2019-05-23T18:14:23.098Z,3.42
2019-05-23T18:16:51.571Z,4.42
2019-05-23T18:19:20.349Z,6.72
2019-05-23T18:21:48.651Z,5.87
2019-05-23T18:24:17.142Z,6.08
2019-05-23T18:26:45.614Z,7.97
2019-05-23T18:29:14.146Z,5.72
2019-05-23T18:31:42.570Z,5.55
2019-05-23T18:34:11.065Z,5.00
2019-05-23T18:36:39.559Z,5.20
2019-05-23T18:39:08.178Z,6.05
2019-05-23T18:41:36.599Z,4.92
2019-05-23T18:44:05.080Z,8.58
2019-05-23T18:46:37.546Z,6.30
2019-05-23T18:49:04.553Z,7.50
2019-05-23T18:51:33.054Z,7.92
2019-05-23T18:54:01.543Z,7.10
2019-05-23T18:56:30.006Z,6.75
2019-05-23T18:58:58.483Z,6.75
2019-05-23T19:01:27.708Z,7.33
2019-05-23T19:04:00.168Z,8.58
2019-05-23T19:06:29.201Z,9.93
2019-05-23T19:08:58.157Z,6.10
2019-05-23T19:11:26.634Z,6.37
2019-05-23T19:13:55.119Z,4.97
2019-05-23T19:16:23.882Z,8.73
2019-05-23T19:18:52.387Z,7.70
2019-05-23T19:21:20.791Z,5.65
2019-05-23T19:23:49.236Z,7.42
2019-05-23T19:26:17.742Z,6.85
2019-05-23T19:28:46.353Z,9.15
2019-05-23T19:31:15.101Z,8.60
2019-05-23T19:33:43.604Z,8.83
2019-05-23T19:36:12.173Z,8.95
2019-05-23T19:38:40.647Z,9.50
2019-05-23T19:41:09.124Z,6.15
2019-05-23T19:43:37.600Z,5.60
2019-05-23T19:46:06.333Z,7.33
2019-05-23T19:48:35.160Z,7.83
2019-05-23T19:51:03.569Z,7.62
2019-05-23T19:53:32.034Z,8.33
2019-05-23T19:56:01.641Z,8.60
2019-05-23T19:58:30.193Z,8.65
2019-05-23T20:00:58.675Z,9.85
2019-05-23T20:03:27.460Z,6.75
2019-05-23T20:05:56.152Z,8.28
2019-05-23T20:08:25.053Z,11.03
2019-05-23T20:10:53.425Z,8.28
2019-05-23T20:13:22.213Z,9.00
2019-05-23T20:15:50.897Z,9.38
2019-05-23T20:18:19.294Z,8.85
2019-05-23T20:20:47.682Z,7.67
2019-05-23T20:23:16.526Z,8.90
2019-05-23T20:25:44.926Z,10.75
2019-05-23T20:28:13.415Z,10.08
2019-05-23T20:30:51.400Z,11.48
2019-05-23T20:33:20.042Z,11.38
2019-05-23T20:35:48.469Z,13.50
2019-05-23T20:38:17.209Z,10.90
2019-05-23T20:40:45.742Z,10.03
2019-05-23T20:43:14.235Z,10.47
2019-05-23T20:45:42.699Z,9.20
2019-05-23T20:48:11.182Z,10.08
2019-05-23T20:50:39.656Z,11.73
2019-05-23T20:53:08.146Z,9.18
2019-05-23T20:55:36.647Z,11.15
2019-05-23T20:58:05.107Z,11.65
2019-05-23T21:00:46.257Z,9.75
2019-05-23T21:03:14.743Z,11.73
2019-05-23T21:05:43.233Z,11.53
2019-05-23T21:08:11.704Z,15.18
2019-05-23T21:10:46.502Z,11.45
2019-05-23T21:13:15.031Z,17.15
2019-05-23T21:15:43.514Z,20.05
2019-05-23T21:18:12.001Z,16.62
2019-05-23T21:20:40.437Z,12.10
2019-05-23T21:23:09.221Z,13.88
2019-05-23T21:25:37.684Z,9.60
2019-05-23T21:28:06.425Z,11.10
2019-05-23T21:30:34.934Z,8.65
2019-05-23T21:33:03.401Z,9.55
2019-05-23T21:35:32.985Z,8.88
2019-05-23T21:38:02.211Z,9.20
2019-05-23T21:40:32.612Z,9.25
2019-05-23T21:43:01.026Z,10.80
2019-05-23T21:45:29.521Z,10.15
2019-05-23T21:47:58.377Z,12.85
2019-05-23T21:50:52.337Z,9.48
2019-05-23T21:53:22.106Z,12.85
2019-05-23T21:55:50.629Z,10.38
2019-05-23T21:58:19.088Z,8.78
2019-05-23T22:01:10.570Z,9.78
2019-05-23T22:03:39.176Z,11.35
2019-05-23T22:06:07.677Z,9.68
2019-05-23T22:08:36.157Z,11.88
2019-05-23T22:11:04.643Z,9.68
2019-05-23T22:13:33.386Z,11.57
2019-05-23T22:16:02.960Z,10.13
2019-05-23T22:18:31.398Z,10.60
2019-05-23T22:20:59.810Z,9.28
2019-05-23T22:23:28.299Z,14.30
2019-05-23T22:25:57.035Z,10.53
2019-05-23T22:28:25.548Z,10.93
2019-05-23T22:30:54.048Z,10.67
2019-05-23T22:33:22.919Z,11.33
2019-05-23T22:35:51.422Z,12.73
2019-05-23T22:38:19.975Z,9.68
2019-05-23T22:40:48.391Z,10.05
2019-05-23T22:43:21.019Z,16.00
2019-05-23T22:45:45.335Z,13.22
2019-05-23T22:48:13.898Z,11.43
2019-05-23T22:50:43.290Z,15.10
2019-05-23T22:53:11.759Z,13.03
2019-05-23T22:55:40.255Z,12.85
2019-05-23T22:58:08.724Z,12.03
2019-05-23T23:00:37.332Z,14.10
2019-05-23T23:03:06.194Z,11.18
2019-05-23T23:05:34.685Z,11.12
2019-05-23T23:08:03.168Z,12.58
2019-05-23T23:10:31.934Z,11.78
2019-05-23T23:13:00.435Z,10.30
2019-05-23T23:15:28.910Z,14.75
2019-05-23T23:17:57.595Z,10.50
2019-05-23T23:20:26.154Z,10.18
2019-05-23T23:22:54.589Z,12.82
2019-05-23T23:25:23.140Z,9.70
2019-05-23T23:27:51.547Z,11.88
2019-05-23T23:30:21.342Z,14.70
2019-05-23T23:32:49.844Z,12.53
2019-05-23T23:35:18.545Z,13.13
2019-05-23T23:37:48.033Z,12.75
2019-05-23T23:40:16.825Z,12.82
2019-05-23T23:42:45.558Z,13.55
2019-05-23T23:45:32.049Z,12.40
2019-05-23T23:48:18.255Z,12.93
2019-05-23T23:51:05.900Z,13.60
2019-05-23T23:53:51.995Z,16.85
2019-05-23T23:56:38.397Z,13.22
2019-05-23T23:59:06.236Z,15.93
